Time;durP1;ratioP1;P1;durP2;ratioP2;P2;SDS_P1;SDS_P2;PMS_P1;PMS_P2;Temp;Humidity;BMP_temperature;BMP_pressure;BME280_temperature;BME280_humidity;BME280_pressure;Samples;Min_cycle;Max_cycle;Signal;HPM_P1;HPM_P2
2021/10/20 00:01:10;;;;;;;;;0.00;0.00;;;;;18.66;56.22;101074.38;5042750;28;45358;-78
2021/10/20 00:03:36;;;;;;;;;0.00;0.00;;;;;18.48;56.67;101039.56;5039593;28;48159;-78
2021/10/20 00:06:01;;;;;;;;;0.00;0.00;;;;;18.52;56.75;101049.16;5041738;28;45352;-78
2021/10/20 00:08:27;;;;;;;;;0.00;0.00;;;;;18.44;56.67;101028.22;5040781;28;45290;-76
2021/10/20 00:10:52;;;;;;;;;0.75;0.00;;;;;18.49;56.76;101036.03;5040965;28;45328;-76
2021/10/20 00:13:19;;;;;;;;;0.00;0.00;;;;;18.53;56.89;101035.06;5041152;28;45583;-80
2021/10/20 00:15:45;;;;;;;;;0.00;0.00;;;;;18.56;57.16;101044.69;5040275;28;45342;-77
2021/10/20 00:18:11;;;;;;;;;0.00;0.00;;;;;18.51;57.45;101033.38;5041050;28;45284;-80
2021/10/20 00:20:38;;;;;;;;;0.00;0.00;;;;;18.56;57.11;101049.97;5040176;28;45632;-77
2021/10/20 00:23:05;;;;;;;;;0.25;0.25;;;;;18.55;57.18;101037.66;5041534;28;46216;-81
2021/10/20 00:25:30;;;;;;;;;0.00;0.00;;;;;18.51;57.30;101025.47;5040144;28;45473;-80
2021/10/20 00:27:56;;;;;;;;;0.00;0.00;;;;;18.61;57.67;101045.47;5041586;28;45370;-79
2021/10/20 00:30:22;;;;;;;;;0.00;0.00;;;;;18.28;57.75;101000.44;5051382;28;45528;-78
2021/10/20 00:32:47;;;;;;;;;0.00;0.00;;;;;18.32;57.90;101007.38;5040356;28;47330;-78
2021/10/20 00:35:13;;;;;;;;;0.00;0.00;;;;;18.43;57.70;101017.69;5040636;28;45329;-78
2021/10/20 00:37:38;;;;;;;;;0.00;0.00;;;;;18.49;57.49;101010.56;5042314;28;45337;-78
2021/10/20 00:40:07;;;;;;;;;0.00;0.00;;;;;18.52;58.01;101017.53;5041132;28;45439;-78
2021/10/20 00:42:33;;;;;;;;;0.00;0.00;;;;;18.52;58.38;101017.53;5041324;28;47443;-78
2021/10/20 00:45:00;;;;;;;;;0.00;0.00;;;;;18.39;58.18;100994.94;5044353;28;45260;-77
2021/10/20 00:47:26;;;;;;;;;0.00;0.00;;;;;18.31;58.10;100974.00;5043903;28;45401;-78
2021/10/20 00:49:52;;;;;;;;;0.00;0.00;;;;;18.48;57.91;101006.19;5044467;28;45439;-77
2021/10/20 00:52:20;;;;;;;;;0.00;0.00;;;;;18.47;57.99;100995.69;5043903;28;47600;-77
2021/10/20 00:54:46;;;;;;;;;0.00;0.00;;;;;18.49;58.09;100989.47;5043992;28;45327;-77
2021/10/20 00:57:13;;;;;;;;;0.00;0.00;;;;;18.53;58.33;101003.44;5045419;28;45285;-77
2021/10/20 00:59:39;;;;;;;;;0.00;0.00;;;;;18.53;58.47;100987.63;5045651;28;45462;-78
2021/10/20 01:02:06;;;;;;;;;0.25;0.00;;;;;18.53;58.15;100997.31;5043997;28;48084;-78
2021/10/20 01:04:32;;;;;;;;;0.75;0.00;;;;;18.43;58.38;100979.03;5043994;28;45345;-78
2021/10/20 01:06:58;;;;;;;;;0.00;0.00;;;;;18.32;58.34;100962.59;5044763;28;45531;-77
2021/10/20 01:09:24;;;;;;;;;0.00;0.00;;;;;18.43;58.36;100980.78;5046218;28;45354;-79
2021/10/20 01:11:49;;;;;;;;;0.00;0.00;;;;;18.30;58.56;100956.47;5045372;28;48184;-78
2021/10/20 01:14:15;;;;;;;;;0.00;0.00;;;;;18.49;58.88;100996.50;5045928;28;45442;-79
2021/10/20 01:16:42;;;;;;;;;0.00;0.00;;;;;18.34;58.73;100961.66;5061463;28;45247;-77
2021/10/20 01:19:08;;;;;;;;;0.00;0.00;;;;;18.56;58.92;100984.91;5045009;28;45606;-78
2021/10/20 01:21:34;;;;;;;;;0.00;0.00;;;;;18.36;58.64;100940.53;5045229;28;45334;-78
2021/10/20 01:24:00;;;;;;;;;0.00;0.00;;;;;18.52;59.00;100966.56;5045068;28;45240;-78
2021/10/20 01:26:26;;;;;;;;;0.00;0.00;;;;;18.44;58.79;100957.03;5043684;28;45395;-78
2021/10/20 01:28:52;;;;;;;;;0.00;0.00;;;;;18.53;59.16;100974.44;5045364;28;45507;-78
2021/10/20 01:31:17;;;;;;;;;0.50;0.50;;;;;18.41;59.61;100949.19;5043314;28;47325;-77
2021/10/20 01:33:58;;;;;;;;;;;;;;;;;;;;;
2021/10/20 01:36:25;;;;;;;;;0.00;0.00;;;;;18.15;59.18;100903.19;5043959;28;68147;-77
2021/10/20 01:38:52;;;;;;;;;0.00;0.00;;;;;18.31;59.11;100922.19;5043754;28;45408;-77
2021/10/20 01:41:18;;;;;;;;;0.00;0.00;;;;;18.25;59.46;100914.41;5043190;28;47209;-77
2021/10/20 01:43:45;;;;;;;;;0.75;0.00;;;;;18.56;59.25;100963.84;5044604;28;45303;-77
2021/10/20 01:46:21;;;;;;;;;0.00;0.00;;;;;18.18;59.17;100907.53;5043524;28;45325;-78
2021/10/20 01:48:47;;;;;;;;;0.00;0.00;;;;;18.20;59.46;100903.09;5044029;28;45305;-77
2021/10/20 01:51:14;;;;;;;;;1.00;1.00;;;;;18.47;59.42;100943.81;5043067;28;46978;-77
2021/10/20 01:53:40;;;;;;;;;0.00;0.00;;;;;18.35;59.56;100917.72;5042593;28;45263;-77
2021/10/20 01:56:06;;;;;;;;;0.00;0.00;;;;;18.35;59.47;100918.56;5042750;28;45524;-76
2021/10/20 01:58:32;;;;;;;;;0.50;0.25;;;;;18.42;59.58;100918.44;5044818;28;45463;-76
2021/10/20 02:00:57;;;;;;;;;0.00;0.00;;;;;18.32;59.92;100909.88;5042956;28;46852;-75
2021/10/20 02:03:27;;;;;;;;;0.00;0.00;;;;;18.39;59.93;100916.75;5043631;28;45236;-76
2021/10/20 02:05:53;;;;;;;;;0.00;0.00;;;;;18.22;59.86;100890.75;5043893;28;45286;-76
2021/10/20 02:08:19;;;;;;;;;0.75;0.00;;;;;18.08;60.29;100864.69;5060582;28;45399;-76
2021/10/20 02:10:44;;;;;;;;;0.00;0.00;;;;;18.39;60.25;100918.50;5045761;28;47258;-77
2021/10/20 02:13:09;;;;;;;;;1.00;0.00;;;;;18.20;60.28;100885.53;5062518;28;45278;-76
2021/10/20 02:15:35;;;;;;;;;0.00;0.00;;;;;18.31;60.60;100887.06;5046197;28;45214;-76
2021/10/20 02:18:00;;;;;;;;;0.00;0.00;;;;;18.28;59.81;100879.25;5064156;28;45528;-76
2021/10/20 02:20:25;;;;;;;;;0.00;0.00;;;;;18.18;60.53;100868.88;5045219;28;47122;-77
2021/10/20 02:22:51;;;;;;;;;0.00;0.00;;;;;18.25;60.29;100874.03;5046135;28;46261;-77
2021/10/20 02:25:16;;;;;;;;;0.00;0.00;;;;;18.31;60.26;100882.66;5046157;28;45449;-77
2021/10/20 02:27:42;;;;;;;;;0.00;0.00;;;;;18.05;60.25;100828.75;5064509;28;45461;-77
2021/10/20 02:30:08;;;;;;;;;0.25;0.00;;;;;17.92;60.61;100800.94;5064051;28;45377;-77
2021/10/20 02:32:33;;;;;;;;;0.00;0.00;;;;;18.15;60.41;100818.00;5062383;28;45379;-78
2021/10/20 02:35:02;;;;;;;;;0.25;0.25;;;;;18.34;60.89;100860.63;5063910;28;45500;-77
2021/10/20 02:37:27;;;;;;;;;0.00;0.00;;;;;18.22;60.60;100838.06;5046317;28;45319;-78
2021/10/20 02:39:53;;;;;;;;;1.00;0.00;;;;;18.21;60.77;100847.75;5064355;28;46162;-77
2021/10/20 02:42:18;;;;;;;;;0.25;0.00;;;;;18.23;60.95;100838.03;5064459;28;45246;-78
2021/10/20 02:44:43;;;;;;;;;0.00;0.00;;;;;18.21;60.71;100844.22;5064293;28;45223;-78
2021/10/20 02:47:09;;;;;;;;;0.00;0.00;;;;;18.23;61.09;100826.63;5046283;28;45265;-78
2021/10/20 02:49:34;;;;;;;;;0.00;0.00;;;;;18.08;61.28;100809.38;5064170;28;46902;-78
2021/10/20 02:51:59;;;;;;;;;2.00;0.00;;;;;18.17;61.14;100821.50;5064165;28;45256;-78
2021/10/20 02:54:25;;;;;;;;;0.00;0.00;;;;;18.16;60.87;100819.78;5045800;28;45222;-78
2021/10/20 02:56:50;;;;;;;;;0.50;0.00;;;;;18.14;60.81;100808.38;5045786;28;45472;-78
2021/10/20 02:59:16;;;;;;;;;0.00;0.00;;;;;18.07;60.89;100808.47;5063477;28;46219;-78
2021/10/20 03:01:42;;;;;;;;;0.00;0.00;;;;;18.02;60.79;100806.84;5045533;28;45381;-77
2021/10/20 03:04:07;;;;;;;;;0.00;0.00;;;;;18.03;60.69;100801.56;5063426;28;45493;-77
2021/10/20 03:06:33;;;;;;;;;1.00;0.00;;;;;17.92;60.96;100801.78;5063687;28;45338;-78
2021/10/20 03:08:58;;;;;;;;;0.00;0.00;;;;;17.96;61.17;100824.53;5045440;28;47756;-78
2021/10/20 03:11:24;;;;;;;;;0.00;0.00;;;;;17.93;61.31;100816.69;5041673;28;45391;-78
2021/10/20 03:13:49;;;;;;;;;0.00;0.00;;;;;17.90;61.27;100807.97;5043405;28;45393;-77
2021/10/20 03:16:15;;;;;;;;;0.00;0.00;;;;;17.47;61.26;100750.06;5043455;28;45336;-77
2021/10/20 03:18:40;;;;;;;;;1.75;0.50;;;;;17.58;61.49;100771.75;5042693;28;45336;-78
2021/10/20 03:21:05;;;;;;;;;0.00;0.00;;;;;17.87;61.54;100837.88;5042862;28;45280;-78
2021/10/20 03:23:31;;;;;;;;;0.00;0.00;;;;;17.88;61.70;100851.94;5041694;28;45304;-76
2021/10/20 03:25:56;;;;;;;;;0.00;0.00;;;;;17.92;62.03;100864.97;5042031;28;45233;-78
2021/10/20 03:28:22;;;;;;;;;0.00;0.00;;;;;17.88;61.60;100850.13;5041578;28;48154;-76
2021/10/20 03:30:47;;;;;;;;;0.00;0.00;;;;;17.72;61.68;100826.75;5051157;28;45216;-76
2021/10/20 03:33:13;;;;;;;;;0.00;0.00;;;;;17.87;61.96;100835.25;5073906;28;45377;-77
2021/10/20 03:35:38;;;;;;;;;0.25;0.25;;;;;17.83;61.98;100807.25;5074406;28;45335;-76
2021/10/20 03:38:05;;;;;;;;;0.25;0.00;;;;;17.94;62.03;100828.06;5082968;28;45251;-76
2021/10/20 03:40:31;;;;;;;;;0.00;0.00;;;;;17.62;61.77;100759.41;5083010;28;45321;-76
2021/10/20 03:42:56;;;;;;;;;0.00;0.00;;;;;17.77;62.09;100779.28;5064809;28;45372;-76
2021/10/20 03:45:22;;;;;;;;;0.00;0.00;;;;;17.95;61.79;100820.16;5083136;28;45575;-78
2021/10/20 03:47:47;;;;;;;;;0.00;0.00;;;;;17.68;61.52;100787.38;5079617;28;46233;-76
2021/10/20 03:50:13;;;;;;;;;0.00;0.00;;;;;17.66;61.90;100781.25;5064723;28;45307;-77
2021/10/20 03:52:38;;;;;;;;;0.00;0.00;;;;;17.85;62.39;100821.22;5064793;28;45274;-77
2021/10/20 03:55:05;;;;;;;;;0.00;0.00;;;;;17.77;61.61;100810.88;5064899;28;45491;-77
2021/10/20 03:57:35;;;;;;;;;0.00;0.00;;;;;17.79;62.69;100800.31;5064507;28;48588;-78
2021/10/20 04:00:01;;;;;;;;;0.00;0.00;;;;;17.89;62.23;100825.56;5081484;28;45386;-77
2021/10/20 04:02:26;;;;;;;;;1.00;1.00;;;;;17.83;61.95;100813.38;5070201;28;45332;-77
2021/10/20 04:04:54;;;;;;;;;0.25;0.00;;;;;17.76;62.01;100801.22;5072987;28;45565;-76
2021/10/20 04:07:20;;;;;;;;;3.00;0.00;;;;;17.79;62.12;100800.31;5080375;28;45743;-76
2021/10/20 04:09:45;;;;;;;;;0.00;0.00;;;;;17.81;61.94;100783.59;5082594;28;45376;-76
2021/10/20 04:12:11;;;;;;;;;0.00;0.00;;;;;17.66;61.88;100754.94;5072753;28;45466;-76
2021/10/20 04:14:36;;;;;;;;;0.00;0.00;;;;;17.86;62.27;100786.13;5063488;28;45276;-75
2021/10/20 04:17:01;;;;;;;;;0.00;0.00;;;;;17.65;62.60;100745.31;5069008;28;45327;-76
2021/10/20 04:19:27;;;;;;;;;0.00;0.00;;;;;17.70;62.08;100752.22;5060058;28;45439;-77
2021/10/20 04:21:52;;;;;;;;;0.00;0.00;;;;;17.79;62.56;100761.69;5049883;28;45363;-76
2021/10/20 04:24:17;;;;;;;;;0.00;0.00;;;;;17.54;62.25;100727.97;5062429;28;45457;-76
2021/10/20 04:26:43;;;;;;;;;0.00;0.00;;;;;17.77;62.29;100781.94;5060541;28;47104;-77
2021/10/20 04:29:08;;;;;;;;;0.00;0.00;;;;;17.82;62.18;100787.06;5069203;28;45427;-77
2021/10/20 04:31:34;;;;;;;;;0.00;0.00;;;;;17.57;62.43;100748.09;5081609;28;45336;-78
2021/10/20 04:33:59;;;;;;;;;0.25;0.25;;;;;17.67;62.37;100760.16;5067156;28;45480;-77
2021/10/20 04:36:24;;;;;;;;;0.00;0.00;;;;;17.77;62.43;100763.50;5061396;28;45435;-77
2021/10/20 04:38:50;;;;;;;;;1.00;1.00;;;;;17.74;62.24;100742.50;5061251;28;45415;-78
2021/10/20 04:41:15;;;;;;;;;0.00;0.00;;;;;17.82;62.07;100781.81;5061306;28;45216;-77
2021/10/20 04:43:41;;;;;;;;;0.00;0.00;;;;;17.74;62.16;100789.88;5056583;28;45501;-75
2021/10/20 04:46:09;;;;;;;;;0.00;0.00;;;;;17.41;62.08;100737.91;5061278;28;45385;-78
2021/10/20 04:48:34;;;;;;;;;0.00;0.00;;;;;17.66;62.39;100786.53;5061990;28;45792;-80
2021/10/20 04:51:00;;;;;;;;;0.00;0.00;;;;;17.72;62.41;100784.66;5063449;28;45323;-78
2021/10/20 04:53:25;;;;;;;;;1.00;1.00;;;;;17.72;62.07;100791.66;5082305;28;45332;-76
2021/10/20 04:55:50;;;;;;;;;0.00;0.00;;;;;17.77;62.40;100810.00;5070401;28;46540;-76
2021/10/20 04:58:16;;;;;;;;;0.25;0.25;;;;;17.74;62.32;100784.63;5060740;28;45237;-77
2021/10/20 05:00:41;;;;;;;;;0.25;0.25;;;;;17.79;62.42;100802.97;5053979;28;45266;-75
2021/10/20 05:03:06;;;;;;;;;0.00;0.00;;;;;17.60;62.61;100771.72;5060650;28;45609;-77
2021/10/20 05:05:32;;;;;;;;;1.00;0.00;;;;;17.74;62.65;100797.78;5061236;28;46450;-78
2021/10/20 05:07:58;;;;;;;;;0.00;0.00;;;;;17.70;62.56;100780.31;5042982;28;45210;-82
2021/10/20 05:10:26;;;;;;;;;0.00;0.00;;;;;17.79;62.20;100792.44;5040177;28;45261;-80
2021/10/20 05:12:59;;;;;;;;;0.00;0.00;;;;;17.73;62.06;100760.03;5046313;28;45339;-80
2021/10/20 05:15:25;;;;;;;;;0.25;0.25;;;;;17.83;62.28;100791.47;5039881;28;46914;-80
2021/10/20 05:17:53;;;;;;;;;0.00;0.00;;;;;17.78;62.44;100773.13;5039465;28;45494;-79
2021/10/20 05:20:22;;;;;;;;;0.00;0.00;;;;;17.88;62.33;100780.84;5039392;28;45427;-80
2021/10/20 05:22:47;;;;;;;;;0.00;0.00;;;;;17.78;62.14;100764.34;5031375;28;45253;-79
2021/10/20 05:25:14;;;;;;;;;0.50;0.50;;;;;17.78;62.15;100759.94;5039844;28;48239;-79
2021/10/20 05:27:40;;;;;;;;;0.50;0.00;;;;;17.59;62.44;100706.84;5039651;28;45205;-78
2021/10/20 05:30:09;;;;;;;;;1.00;0.00;;;;;17.83;62.71;100759.84;5042752;28;45223;-78
2021/10/20 05:32:35;;;;;;;;;2.00;0.00;;;;;17.53;62.92;100717.47;5029593;28;45543;-79
2021/10/20 05:35:00;;;;;;;;;0.00;0.00;;;;;17.60;63.22;100727.84;5032166;28;48410;-78
2021/10/20 05:37:26;;;;;;;;;0.00;0.00;;;;;17.67;62.65;100706.69;5040673;28;46612;-78
2021/10/20 05:39:53;;;;;;;;;1.00;0.00;;;;;17.59;62.56;100681.38;5043097;28;45204;-78
2021/10/20 05:42:19;;;;;;;;;0.00;0.00;;;;;17.66;62.96;100697.03;5047788;28;45253;-90
2021/10/20 05:44:47;;;;;;;;;0.00;0.00;;;;;17.54;63.37;100670.09;5047503;28;47230;-82
2021/10/20 05:47:13;;;;;;;;;0.00;0.00;;;;;17.86;62.65;100723.78;5055688;28;45509;-81
2021/10/20 05:49:39;;;;;;;;;2.00;1.00;;;;;17.62;62.53;100685.72;5052683;28;45427;-81
2021/10/20 05:52:06;;;;;;;;;1.00;0.00;;;;;17.82;62.75;100706.31;5056624;28;45392;-83
2021/10/20 05:54:32;;;;;;;;;0.00;0.00;;;;;17.68;63.01;100682.94;5055864;28;46407;-80
2021/10/20 05:56:57;;;;;;;;;0.00;0.00;;;;;17.86;62.64;100712.41;5045144;28;45204;-80
2021/10/20 05:59:25;;;;;;;;;0.00;0.00;;;;;17.65;62.51;100679.50;5042467;28;45352;-77
2021/10/20 06:01:54;;;;;;;;;0.00;0.00;;;;;17.92;62.89;100727.19;5044715;28;45541;-76
2021/10/20 06:04:19;;;;;;;;;1.00;0.25;;;;;17.66;62.65;100676.84;5040506;28;47158;-77
2021/10/20 06:06:45;;;;;;;;;0.00;0.00;;;;;17.78;62.22;100717.84;5045997;28;45304;-77
2021/10/20 06:09:11;;;;;;;;;1.00;0.00;;;;;17.64;62.69;100670.72;5045133;28;45403;-79
2021/10/20 06:11:40;;;;;;;;;0.00;0.00;;;;;17.94;63.11;100720.97;5063817;28;45261;-78
2021/10/20 06:14:06;;;;;;;;;0.75;0.00;;;;;17.85;62.85;100713.28;5062502;28;45599;-78
2021/10/20 06:16:35;;;;;;;;;0.25;0.25;;;;;17.73;62.80;100677.56;5060816;28;45457;-78
2021/10/20 06:19:00;;;;;;;;;0.00;0.00;;;;;17.90;62.62;100700.00;5062401;28;45745;-77
2021/10/20 06:21:26;;;;;;;;;0.00;0.00;;;;;17.65;62.88;100645.28;5060760;28;45319;-82
2021/10/20 06:23:59;;;;;;;;;0.00;0.00;;;;;17.76;62.83;100656.44;5059600;28;45307;-80
2021/10/20 06:26:24;;;;;;;;;0.00;0.00;;;;;17.84;62.86;100672.94;5044851;28;45541;-84
2021/10/20 06:28:50;;;;;;;;;0.00;0.00;;;;;17.62;63.32;100609.38;5042009;28;45611;-80
2021/10/20 06:31:15;;;;;;;;;3.50;0.00;;;;;17.96;62.73;100663.00;5058861;28;45704;-79
2021/10/20 06:33:42;;;;;;;;;0.00;0.00;;;;;17.83;62.88;100658.03;5063135;28;46685;-79
2021/10/20 06:36:18;;;;;;;;;0.00;0.00;;;;;17.85;63.29;100672.03;5043382;28;45260;-79
2021/10/20 06:38:44;;;;;;;;;0.00;0.00;;;;;17.82;63.36;100653.66;5060447;28;45245;-78
2021/10/20 06:41:09;;;;;;;;;0.75;0.75;;;;;17.37;64.18;100574.88;5063096;28;45635;-78
2021/10/20 06:43:35;;;;;;;;;0.00;0.00;;;;;17.71;64.16;100639.91;5069924;28;46286;-77
2021/10/20 06:46:02;;;;;;;;;0.25;0.00;;;;;17.56;64.28;100612.16;5064631;28;45311;-78
2021/10/20 06:48:27;;;;;;;;;0.00;0.00;;;;;17.66;64.32;100631.22;5063128;28;45296;-79
2021/10/20 06:50:53;;;;;;;;;1.00;0.00;;;;;17.60;64.62;100638.38;5062426;28;45486;-78
2021/10/20 06:53:18;;;;;;;;;0.00;0.00;;;;;17.67;65.20;100630.34;5061847;28;45816;-79
2021/10/20 06:55:45;;;;;;;;;0.00;0.00;;;;;17.40;65.60;100575.63;5061124;28;45486;-80
2021/10/20 06:58:11;;;;;;;;;0.00;0.00;;;;;17.68;65.56;100646.09;5073884;28;45449;-78
2021/10/20 07:00:36;;;;;;;;;0.00;0.00;;;;;17.33;66.08;100588.09;5083839;28;45168;-77
2021/10/20 07:03:01;;;;;;;;;0.75;0.00;;;;;17.38;65.93;100602.91;5048355;28;47232;-82
2021/10/20 07:05:27;;;;;;;;;0.00;0.00;;;;;17.59;65.63;100633.13;5045393;28;45242;-82
2021/10/20 07:07:52;;;;;;;;;0.00;0.00;;;;;17.54;66.44;100632.34;5057684;28;45146;-82
2021/10/20 07:10:17;;;;;;;;;0.00;0.00;;;;;17.32;66.33;100585.47;5048862;28;45306;-77
2021/10/20 07:12:43;;;;;;;;;0.50;0.00;;;;;17.30;66.23;100584.66;5043954;28;45680;-78
2021/10/20 07:15:09;;;;;;;;;0.50;0.50;;;;;17.24;66.55;100583.00;5033784;28;45181;-78
2021/10/20 07:17:34;;;;;;;;;0.75;0.75;;;;;17.40;66.36;100620.38;5043290;28;45381;-78
2021/10/20 07:19:59;;;;;;;;;0.00;0.00;;;;;17.32;66.67;100615.28;5042048;28;45382;-78
2021/10/20 07:22:27;;;;;;;;;0.00;0.00;;;;;17.33;66.67;100617.03;5043750;28;45335;-77
2021/10/20 07:24:52;;;;;;;;;0.00;0.00;;;;;17.06;66.83;100577.25;5043280;28;45375;-77
2021/10/20 07:27:18;;;;;;;;;0.00;0.00;;;;;17.14;66.91;100590.25;5048871;28;45260;-78
2021/10/20 07:29:47;;;;;;;;;0.75;0.75;;;;;17.38;67.53;100608.16;5057608;28;45279;-78
2021/10/20 07:32:13;;;;;;;;;0.00;0.00;;;;;17.34;66.82;100607.38;5058560;28;46817;-79
2021/10/20 07:34:38;;;;;;;;;0.00;0.00;;;;;17.27;66.58;100600.50;5045445;28;45399;-78
2021/10/20 07:37:04;;;;;;;;;2.00;1.00;;;;;17.21;66.46;100597.09;5053211;28;45142;-78
2021/10/20 07:39:30;;;;;;;;;0.75;0.75;;;;;17.17;67.37;100590.19;5049744;28;45319;-78
2021/10/20 07:41:55;;;;;;;;;3.00;0.00;;;;;17.39;66.93;100609.91;5042195;28;46625;-79
2021/10/20 07:44:20;;;;;;;;;0.00;0.00;;;;;17.40;67.00;100611.63;5055995;28;45327;-78
2021/10/20 07:46:46;;;;;;;;;0.00;0.00;;;;;17.34;67.44;100612.63;5041943;28;45605;-78
2021/10/20 07:49:12;;;;;;;;;1.75;0.00;;;;;17.39;67.01;100608.13;5041179;28;45406;-78
2021/10/20 07:51:38;;;;;;;;;0.00;0.00;;;;;17.38;67.58;100637.97;5041004;28;47306;-77
2021/10/20 07:54:03;;;;;;;;;0.00;0.00;;;;;17.47;66.78;100650.94;5074159;28;46230;-78
2021/10/20 07:56:33;;;;;;;;;1.00;1.00;;;;;17.40;67.14;100654.56;5077062;28;45509;-80
2021/10/20 07:59:00;;;;;;;;;0.00;0.00;;;;;17.44;67.77;100682.56;5070280;28;44749;-82
2021/10/20 08:01:26;;;;;;;;;0.00;0.00;;;;;17.11;67.11;100624.50;5069001;28;47287;-81
2021/10/20 08:03:52;;;;;;;;;0.00;0.00;;;;;16.60;67.35;100552.72;5057191;28;45371;-77
2021/10/20 08:06:18;;;;;;;;;1.00;1.00;;;;;17.41;67.67;100671.25;5053285;28;45443;-77
2021/10/20 08:08:43;;;;;;;;;0.25;0.00;;;;;17.25;67.84;100660.16;5056823;28;45026;-78
2021/10/20 08:11:08;;;;;;;;;0.00;0.00;;;;;17.12;68.32;100646.41;5059482;28;46820;-78
2021/10/20 08:13:34;;;;;;;;;0.00;0.00;;;;;17.32;68.32;100667.03;5044095;28;45378;-78
2021/10/20 08:15:59;;;;;;;;;0.75;0.75;;;;;17.23;67.81;100647.06;5046505;28;45423;-79
2021/10/20 08:18:24;;;;;;;;;0.50;0.00;;;;;17.31;68.35;100647.75;5047824;28;45473;-78
2021/10/20 08:20:50;;;;;;;;;1.00;1.00;;;;;17.13;68.63;100613.94;5046206;28;45414;-78
2021/10/20 08:23:15;;;;;;;;;0.00;0.00;;;;;17.32;68.23;100638.97;5041415;28;45436;-78
2021/10/20 08:25:41;;;;;;;;;0.25;0.25;;;;;17.35;67.92;100630.13;5041928;28;45358;-78
2021/10/20 08:28:07;;;;;;;;;0.75;0.75;;;;;17.53;68.00;100663.09;5045351;28;45425;-78
2021/10/20 08:30:34;;;;;;;;;0.75;0.00;;;;;17.62;68.36;100675.19;5049726;28;47463;-77
2021/10/20 08:33:00;;;;;;;;;0.00;0.00;;;;;17.52;68.11;100655.22;5044763;28;45311;-79
2021/10/20 08:35:26;;;;;;;;;2.25;1.00;;;;;17.25;67.63;100616.31;5041332;28;45493;-79
2021/10/20 08:38:00;;;;;;;;;1.25;1.25;;;;;17.41;68.40;100650.19;5043523;28;45584;-79
2021/10/20 08:40:29;;;;;;;;;0.00;0.00;;;;;17.50;68.55;100678.94;5045242;28;46415;-80
2021/10/20 08:42:55;;;;;;;;;2.25;1.25;;;;;17.52;68.26;100678.91;5048664;28;45431;-78
2021/10/20 08:45:20;;;;;;;;;0.00;0.00;;;;;17.33;68.79;100648.59;5049644;28;45472;-76
2021/10/20 08:47:47;;;;;;;;;1.00;1.00;;;;;17.40;68.64;100654.56;5043866;28;45650;-78
2021/10/20 08:50:19;;;;;;;;;0.00;0.00;;;;;17.52;68.47;100678.91;5042336;28;46080;-79
2021/10/20 08:52:49;;;;;;;;;1.00;1.00;;;;;17.24;69.02;100653.19;5057626;28;45279;-78
2021/10/20 08:55:16;;;;;;;;;0.50;0.00;;;;;17.30;68.78;100651.28;5033236;28;45447;-78
2021/10/20 08:57:43;;;;;;;;;0.00;0.00;;;;;17.30;69.03;100658.31;5049053;28;45507;-79
2021/10/20 09:00:09;;;;;;;;;0.25;0.25;;;;;17.34;69.48;100649.47;5047765;28;47301;-79
2021/10/20 09:02:38;;;;;;;;;0.00;0.00;;;;;17.36;68.96;100660.81;5041878;28;45435;-79
2021/10/20 09:05:05;;;;;;;;;4.00;1.75;;;;;17.49;69.48;100671.97;5043190;28;45468;-79
2021/10/20 09:07:31;;;;;;;;;1.00;0.25;;;;;17.44;69.04;100661.53;5042749;28;45470;-79
2021/10/20 09:09:56;;;;;;;;;1.50;0.75;;;;;17.41;69.11;100645.81;5044213;28;46427;-79
2021/10/20 09:12:26;;;;;;;;;0.75;0.00;;;;;17.46;69.78;100653.59;5038809;28;45443;-77
2021/10/20 09:14:59;;;;;;;;;0.00;0.00;;;;;17.29;69.32;100627.63;5053701;28;45244;-77
2021/10/20 09:17:24;;;;;;;;;1.00;1.00;;;;;17.38;69.42;100645.88;5045650;28;45498;-78
2021/10/20 09:19:51;;;;;;;;;0.00;0.00;;;;;17.39;69.64;100646.75;5038880;28;47011;-78
2021/10/20 09:22:17;;;;;;;;;2.00;1.00;;;;;17.46;69.71;100648.34;5044242;28;45257;-80
2021/10/20 09:24:44;;;;;;;;;0.50;0.50;;;;;17.68;69.60;100675.06;5056176;28;45312;-80
2021/10/20 09:27:21;;;;;;;;;2.75;1.00;;;;;17.60;69.77;100656.78;5052702;28;45296;-80
2021/10/20 09:29:47;;;;;;;;;0.75;0.75;;;;;17.70;69.49;100665.34;5078933;28;47124;-80
2021/10/20 09:32:13;;;;;;;;;0.25;0.25;;;;;17.49;69.54;100624.59;5048789;28;45418;-80
2021/10/20 09:34:39;;;;;;;;;0.00;0.00;;;;;17.66;70.00;100649.66;5042630;28;45353;-81
2021/10/20 09:37:07;;;;;;;;;1.00;0.75;;;;;17.64;70.17;100662.00;5046499;28;45597;-77
2021/10/20 09:39:34;;;;;;;;;0.00;0.00;;;;;17.62;70.41;100666.41;5043939;28;45477;-85
2021/10/20 09:42:09;;;;;;;;;0.00;0.00;;;;;17.46;70.16;100633.41;5040564;28;45355;-78
2021/10/20 09:44:46;;;;;;;;;0.00;0.00;;;;;17.60;70.53;100663.81;5057914;28;45354;-76
2021/10/20 09:47:12;;;;;;;;;0.25;0.00;;;;;17.67;70.17;100667.19;5041469;28;45514;-76
2021/10/20 09:49:49;;;;;;;;;0.75;0.00;;;;;17.62;70.14;100651.50;5042564;28;45390;-76
2021/10/20 09:52:15;;;;;;;;;0.25;0.25;;;;;17.67;70.15;100657.50;5043416;28;45402;-78
2021/10/20 09:54:44;;;;;;;;;0.50;0.50;;;;;17.71;69.95;100656.53;5043396;28;45359;-77
2021/10/20 09:57:10;;;;;;;;;0.00;0.00;;;;;17.63;69.92;100621.63;5042065;28;45400;-77
2021/10/20 09:59:35;;;;;;;;;0.00;0.00;;;;;17.77;69.89;100634.50;5043067;28;46383;-77
2021/10/20 10:02:00;;;;;;;;;0.00;0.00;;;;;17.68;69.49;100601.34;5042932;28;45331;-77
2021/10/20 10:04:26;;;;;;;;;2.25;0.75;;;;;17.96;69.70;100637.56;5042287;28;45505;-76
2021/10/20 10:06:52;;;;;;;;;1.00;1.00;;;;;17.94;69.16;100614.78;5042023;28;45373;-77
2021/10/20 10:09:18;;;;;;;;;0.00;0.00;;;;;18.20;68.92;100648.44;5051306;28;45559;-75
2021/10/20 10:11:53;;;;;;;;;0.25;0.00;;;;;18.15;68.94;100626.59;5058197;28;45301;-79
2021/10/20 10:14:24;;;;;;;;;0.00;0.00;;;;;18.29;68.87;100631.53;5047777;28;45467;-76
2021/10/20 10:16:58;;;;;;;;;0.00;0.00;;;;;18.28;68.28;100642.09;5055641;28;45493;-75
2021/10/20 10:19:25;;;;;;;;;0.00;0.00;;;;;18.10;68.21;100616.16;5062254;28;45630;-76
2021/10/20 10:21:52;;;;;;;;;2.50;1.00;;;;;18.18;68.42;100618.63;5047641;28;45381;-77
2021/10/20 10:24:19;;;;;;;;;2.00;0.00;;;;;18.31;68.33;100647.28;5062195;28;45428;-77
2021/10/20 10:27:00;;;;;;;;;0.00;0.00;;;;;18.30;68.29;100627.09;5045468;28;45668;-77
2021/10/20 10:29:25;;;;;;;;;0.00;0.00;;;;;18.10;68.06;100596.88;5053645;28;45352;-76
2021/10/20 10:31:51;;;;;;;;;0.00;0.00;;;;;18.38;67.95;100619.88;5053399;28;45555;-75
2021/10/20 10:34:26;;;;;;;;;0.00;0.00;;;;;18.00;67.71;100569.00;5046613;28;45371;-76
2021/10/20 10:36:54;;;;;;;;;0.25;0.25;;;;;18.20;68.04;100603.66;5033995;28;45552;-78
2021/10/20 10:39:20;;;;;;;;;1.00;1.00;;;;;18.12;67.94;100584.53;5050483;28;45514;-76
2021/10/20 10:41:46;;;;;;;;;0.75;0.25;;;;;18.31;67.60;100598.09;5049207;28;45482;-77
2021/10/20 10:44:20;;;;;;;;;1.50;0.00;;;;;18.32;67.88;100610.34;5056079;28;45306;-78
2021/10/20 10:46:45;;;;;;;;;0.00;0.00;;;;;18.42;68.20;100636.47;5046398;28;45494;-77
2021/10/20 10:49:43;;;;;;;;;0.00;0.00;;;;;18.41;68.09;100621.56;5055668;28;45360;-76
2021/10/20 10:52:16;;;;;;;;;0.00;0.00;;;;;18.44;68.25;100610.94;5055918;28;45339;-77
2021/10/20 10:54:52;;;;;;;;;0.00;0.00;;;;;18.42;68.53;100597.81;5037920;28;45446;-75
2021/10/20 10:57:17;;;;;;;;;0.00;0.00;;;;;18.49;68.58;100601.13;5053464;28;45463;-75
2021/10/20 11:00:07;;;;;;;;;0.00;0.00;;;;;18.45;68.16;100587.19;5053063;28;45452;-76
2021/10/20 11:02:38;;;;;;;;;1.00;1.00;;;;;18.32;68.45;100552.38;5043359;28;45480;-77
2021/10/20 11:05:05;;;;;;;;;0.00;0.00;;;;;18.42;67.65;100570.59;5054637;28;45271;-76
2021/10/20 11:07:32;;;;;;;;;0.00;0.00;;;;;18.67;68.06;100601.53;5043671;28;45321;-75
2021/10/20 11:09:58;;;;;;;;;0.00;0.00;;;;;18.70;67.51;100585.63;5061708;28;46651;-75
2021/10/20 11:12:26;;;;;;;;;0.00;0.00;;;;;18.65;67.25;100567.31;5060701;28;45409;-76
2021/10/20 11:14:55;;;;;;;;;1.50;0.00;;;;;18.71;67.15;100551.31;5043783;28;45186;-76
2021/10/20 11:17:21;;;;;;;;;0.75;0.25;;;;;18.61;66.85;100529.66;5061640;28;45537;-78
2021/10/20 11:19:47;;;;;;;;;0.00;0.00;;;;;18.88;66.74;100573.72;5043244;28;46825;-78
2021/10/20 11:22:25;;;;;;;;;0.00;0.00;;;;;18.72;66.77;100533.75;5061481;28;45421;-77
2021/10/20 11:24:52;;;;;;;;;0.00;0.00;;;;;19.13;66.30;100573.03;5044177;28;45387;-77